sensor_id;sensor_type;location;lat;lon;timestamp;P1;durP1;ratioP1;P2;durP2;ratioP2
20653;SDS011;21083;50.898;4.902;2022-08-19T00:01:27;19.90;;;13.07;;
20653;SDS011;21083;50.898;4.902;2022-08-19T00:03:55;19.55;;;13.80;;
20653;SDS011;21083;50.898;4.902;2022-08-19T00:06:22;24.13;;;15.10;;
20653;SDS011;21083;50.898;4.902;2022-08-19T00:08:49;22.50;;;14.25;;
20653;SDS011;21083;50.898;4.902;2022-08-19T00:11:18;19.98;;;14.13;;
20653;SDS011;21083;50.898;4.902;2022-08-19T00:13:45;19.77;;;14.10;;
20653;SDS011;21083;50.898;4.902;2022-08-19T00:16:13;23.75;;;14.75;;
20653;SDS011;21083;50.898;4.902;2022-08-19T00:18:40;18.70;;;12.15;;
20653;SDS011;21083;50.898;4.902;2022-08-19T00:21:07;25.55;;;15.07;;
20653;SDS011;21083;50.898;4.902;2022-08-19T00:23:34;19.40;;;12.65;;
20653;SDS011;21083;50.898;4.902;2022-08-19T00:26:01;21.52;;;13.82;;
20653;SDS011;21083;50.898;4.902;2022-08-19T00:28:30;22.67;;;13.30;;
20653;SDS011;21083;50.898;4.902;2022-08-19T00:30:58;21.98;;;13.70;;
20653;SDS011;21083;50.898;4.902;2022-08-19T00:33:25;20.60;;;14.38;;
20653;SDS011;21083;50.898;4.902;2022-08-19T00:35:52;23.75;;;14.50;;
20653;SDS011;21083;50.898;4.902;2022-08-19T00:38:20;22.58;;;14.50;;
20653;SDS011;21083;50.898;4.902;2022-08-19T00:40:48;23.48;;;17.20;;
20653;SDS011;21083;50.898;4.902;2022-08-19T00:43:18;26.60;;;16.60;;
20653;SDS011;21083;50.898;4.902;2022-08-19T00:45:48;28.30;;;19.40;;
20653;SDS011;21083;50.898;4.902;2022-08-19T00:48:16;28.85;;;19.38;;
20653;SDS011;21083;50.898;4.902;2022-08-19T00:50:43;27.92;;;18.63;;
20653;SDS011;21083;50.898;4.902;2022-08-19T00:53:12;29.63;;;18.77;;
20653;SDS011;21083;50.898;4.902;2022-08-19T00:55:44;29.42;;;19.90;;
20653;SDS011;21083;50.898;4.902;2022-08-19T00:58:14;30.38;;;20.15;;
20653;SDS011;21083;50.898;4.902;2022-08-19T01:00:44;28.30;;;19.80;;
20653;SDS011;21083;50.898;4.902;2022-08-19T01:03:17;27.98;;;19.55;;
20653;SDS011;21083;50.898;4.902;2022-08-19T01:05:46;26.45;;;18.30;;
20653;SDS011;21083;50.898;4.902;2022-08-19T01:08:15;28.05;;;20.08;;
20653;SDS011;21083;50.898;4.902;2022-08-19T01:10:44;32.33;;;20.60;;
20653;SDS011;21083;50.898;4.902;2022-08-19T01:13:14;31.02;;;19.95;;
20653;SDS011;21083;50.898;4.902;2022-08-19T01:15:43;30.40;;;20.35;;
20653;SDS011;21083;50.898;4.902;2022-08-19T01:18:16;29.92;;;20.13;;
20653;SDS011;21083;50.898;4.902;2022-08-19T01:20:45;32.35;;;21.35;;
20653;SDS011;21083;50.898;4.902;2022-08-19T01:23:13;29.70;;;20.05;;
20653;SDS011;21083;50.898;4.902;2022-08-19T01:25:42;31.38;;;20.10;;
20653;SDS011;21083;50.898;4.902;2022-08-19T01:28:16;31.55;;;22.25;;
20653;SDS011;21083;50.898;4.902;2022-08-19T01:30:44;31.85;;;20.67;;
20653;SDS011;21083;50.898;4.902;2022-08-19T01:33:11;34.60;;;22.10;;
20653;SDS011;21083;50.898;4.902;2022-08-19T01:35:39;32.42;;;22.45;;
20653;SDS011;21083;50.898;4.902;2022-08-19T01:38:08;35.05;;;22.50;;
20653;SDS011;21083;50.898;4.902;2022-08-19T01:40:38;38.20;;;24.27;;
20653;SDS011;21083;50.898;4.902;2022-08-19T01:43:07;37.95;;;24.65;;
20653;SDS011;21083;50.898;4.902;2022-08-19T01:45:34;41.55;;;26.23;;
20653;SDS011;21083;50.898;4.902;2022-08-19T01:48:02;44.33;;;27.13;;
20653;SDS011;21083;50.898;4.902;2022-08-19T01:50:30;47.25;;;27.20;;
20653;SDS011;21083;50.898;4.902;2022-08-19T01:52:58;45.17;;;26.17;;
20653;SDS011;21083;50.898;4.902;2022-08-19T01:55:26;46.42;;;27.00;;
20653;SDS011;21083;50.898;4.902;2022-08-19T01:57:55;48.95;;;28.75;;
20653;SDS011;21083;50.898;4.902;2022-08-19T02:00:26;52.33;;;30.45;;
20653;SDS011;21083;50.898;4.902;2022-08-19T02:02:56;52.45;;;30.48;;
20653;SDS011;21083;50.898;4.902;2022-08-19T02:05:23;55.75;;;30.50;;
20653;SDS011;21083;50.898;4.902;2022-08-19T02:07:50;58.83;;;32.90;;
20653;SDS011;21083;50.898;4.902;2022-08-19T02:10:18;55.35;;;33.80;;
20653;SDS011;21083;50.898;4.902;2022-08-19T02:12:46;54.75;;;32.45;;
20653;SDS011;21083;50.898;4.902;2022-08-19T02:15:16;51.65;;;30.08;;
20653;SDS011;21083;50.898;4.902;2022-08-19T02:17:44;56.72;;;32.53;;
20653;SDS011;21083;50.898;4.902;2022-08-19T02:20:11;55.47;;;32.13;;
20653;SDS011;21083;50.898;4.902;2022-08-19T02:22:39;63.75;;;32.83;;
20653;SDS011;21083;50.898;4.902;2022-08-19T02:25:08;54.80;;;33.00;;
20653;SDS011;21083;50.898;4.902;2022-08-19T02:27:35;62.90;;;34.17;;
20653;SDS011;21083;50.898;4.902;2022-08-19T02:30:03;56.80;;;34.70;;
20653;SDS011;21083;50.898;4.902;2022-08-19T02:32:32;59.50;;;33.45;;
20653;SDS011;21083;50.898;4.902;2022-08-19T02:34:59;62.65;;;34.92;;
20653;SDS011;21083;50.898;4.902;2022-08-19T02:37:26;58.88;;;34.22;;
20653;SDS011;21083;50.898;4.902;2022-08-19T02:40:11;60.50;;;34.83;;
20653;SDS011;21083;50.898;4.902;2022-08-19T02:42:38;62.67;;;33.67;;
20653;SDS011;21083;50.898;4.902;2022-08-19T02:45:06;59.15;;;33.65;;
20653;SDS011;21083;50.898;4.902;2022-08-19T02:47:34;61.28;;;35.58;;
20653;SDS011;21083;50.898;4.902;2022-08-19T02:50:01;63.95;;;34.58;;
20653;SDS011;21083;50.898;4.902;2022-08-19T02:52:31;61.60;;;33.05;;
20653;SDS011;21083;50.898;4.902;2022-08-19T02:54:59;60.60;;;34.33;;
20653;SDS011;21083;50.898;4.902;2022-08-19T02:57:26;62.17;;;33.97;;
20653;SDS011;21083;50.898;4.902;2022-08-19T02:59:54;62.92;;;33.63;;
20653;SDS011;21083;50.898;4.902;2022-08-19T03:02:21;64.18;;;35.00;;
20653;SDS011;21083;50.898;4.902;2022-08-19T03:04:49;60.95;;;35.08;;
20653;SDS011;21083;50.898;4.902;2022-08-19T03:07:17;62.00;;;34.63;;
20653;SDS011;21083;50.898;4.902;2022-08-19T03:09:44;65.35;;;36.15;;
20653;SDS011;21083;50.898;4.902;2022-08-19T03:12:11;60.10;;;35.28;;
20653;SDS011;21083;50.898;4.902;2022-08-19T03:14:38;63.00;;;34.17;;
20653;SDS011;21083;50.898;4.902;2022-08-19T03:17:05;58.78;;;34.05;;
20653;SDS011;21083;50.898;4.902;2022-08-19T03:19:33;57.05;;;32.17;;
20653;SDS011;21083;50.898;4.902;2022-08-19T03:22:01;61.10;;;34.90;;
20653;SDS011;21083;50.898;4.902;2022-08-19T03:24:29;64.00;;;36.03;;
20653;SDS011;21083;50.898;4.902;2022-08-19T03:26:57;64.35;;;35.42;;
20653;SDS011;21083;50.898;4.902;2022-08-19T03:29:24;63.13;;;34.88;;
20653;SDS011;21083;50.898;4.902;2022-08-19T03:31:52;59.65;;;35.25;;
20653;SDS011;21083;50.898;4.902;2022-08-19T03:34:20;60.38;;;33.33;;
20653;SDS011;21083;50.898;4.902;2022-08-19T03:36:51;60.67;;;34.08;;
20653;SDS011;21083;50.898;4.902;2022-08-19T03:39:20;61.10;;;32.45;;
20653;SDS011;21083;50.898;4.902;2022-08-19T03:41:48;60.10;;;33.90;;
20653;SDS011;21083;50.898;4.902;2022-08-19T03:44:16;69.47;;;36.28;;
20653;SDS011;21083;50.898;4.902;2022-08-19T03:46:45;58.28;;;31.00;;
20653;SDS011;21083;50.898;4.902;2022-08-19T03:49:13;60.72;;;32.50;;
20653;SDS011;21083;50.898;4.902;2022-08-19T03:51:41;58.83;;;33.40;;
20653;SDS011;21083;50.898;4.902;2022-08-19T03:54:09;55.25;;;32.42;;
20653;SDS011;21083;50.898;4.902;2022-08-19T03:56:39;55.58;;;32.08;;
20653;SDS011;21083;50.898;4.902;2022-08-19T03:59:10;57.88;;;31.65;;
20653;SDS011;21083;50.898;4.902;2022-08-19T04:01:39;55.67;;;31.73;;
20653;SDS011;21083;50.898;4.902;2022-08-19T04:04:07;54.00;;;30.55;;
20653;SDS011;21083;50.898;4.902;2022-08-19T04:06:35;58.30;;;33.47;;
20653;SDS011;21083;50.898;4.902;2022-08-19T04:09:04;57.22;;;32.05;;
20653;SDS011;21083;50.898;4.902;2022-08-19T04:11:34;63.63;;;35.08;;
20653;SDS011;21083;50.898;4.902;2022-08-19T04:14:05;61.17;;;33.35;;
20653;SDS011;21083;50.898;4.902;2022-08-19T04:16:32;62.58;;;33.58;;
20653;SDS011;21083;50.898;4.902;2022-08-19T04:19:00;58.67;;;33.47;;
20653;SDS011;21083;50.898;4.902;2022-08-19T04:21:27;58.22;;;33.50;;
20653;SDS011;21083;50.898;4.902;2022-08-19T04:23:55;53.15;;;31.63;;
20653;SDS011;21083;50.898;4.902;2022-08-19T04:26:24;52.25;;;30.08;;
20653;SDS011;21083;50.898;4.902;2022-08-19T04:28:52;53.10;;;29.10;;
20653;SDS011;21083;50.898;4.902;2022-08-19T04:31:23;57.60;;;31.30;;
20653;SDS011;21083;50.898;4.902;2022-08-19T04:33:54;52.42;;;29.65;;
20653;SDS011;21083;50.898;4.902;2022-08-19T04:36:23;59.78;;;31.08;;
20653;SDS011;21083;50.898;4.902;2022-08-19T04:38:53;51.15;;;30.23;;
20653;SDS011;21083;50.898;4.902;2022-08-19T04:41:20;51.55;;;29.75;;
20653;SDS011;21083;50.898;4.902;2022-08-19T04:44:06;51.92;;;29.20;;
20653;SDS011;21083;50.898;4.902;2022-08-19T04:46:35;50.60;;;28.48;;
20653;SDS011;21083;50.898;4.902;2022-08-19T04:49:03;46.78;;;26.77;;
20653;SDS011;21083;50.898;4.902;2022-08-19T04:51:33;47.20;;;27.33;;
20653;SDS011;21083;50.898;4.902;2022-08-19T04:54:02;48.15;;;28.15;;
20653;SDS011;21083;50.898;4.902;2022-08-19T04:56:30;47.08;;;27.20;;
20653;SDS011;21083;50.898;4.902;2022-08-19T04:58:57;52.42;;;26.83;;
20653;SDS011;21083;50.898;4.902;2022-08-19T05:01:28;52.63;;;27.17;;
20653;SDS011;21083;50.898;4.902;2022-08-19T05:03:58;51.05;;;26.40;;
20653;SDS011;21083;50.898;4.902;2022-08-19T05:06:27;48.40;;;25.63;;
20653;SDS011;21083;50.898;4.902;2022-08-19T05:08:58;44.78;;;25.08;;
20653;SDS011;21083;50.898;4.902;2022-08-19T05:11:27;48.15;;;26.80;;
20653;SDS011;21083;50.898;4.902;2022-08-19T05:13:56;43.22;;;25.33;;
20653;SDS011;21083;50.898;4.902;2022-08-19T05:16:23;47.70;;;25.63;;
20653;SDS011;21083;50.898;4.902;2022-08-19T05:18:51;45.92;;;23.35;;
20653;SDS011;21083;50.898;4.902;2022-08-19T05:21:38;48.88;;;26.45;;
20653;SDS011;21083;50.898;4.902;2022-08-19T05:24:23;46.13;;;23.90;;
20653;SDS011;21083;50.898;4.902;2022-08-19T05:26:51;48.08;;;26.05;;
20653;SDS011;21083;50.898;4.902;2022-08-19T05:29:22;43.22;;;25.70;;
20653;SDS011;21083;50.898;4.902;2022-08-19T05:31:50;38.83;;;21.58;;
20653;SDS011;21083;50.898;4.902;2022-08-19T05:34:24;40.45;;;21.80;;
20653;SDS011;21083;50.898;4.902;2022-08-19T05:36:54;44.03;;;23.95;;
20653;SDS011;21083;50.898;4.902;2022-08-19T05:39:23;38.00;;;18.45;;
20653;SDS011;21083;50.898;4.902;2022-08-19T05:41:54;41.17;;;23.48;;
20653;SDS011;21083;50.898;4.902;2022-08-19T05:44:23;44.50;;;22.77;;
20653;SDS011;21083;50.898;4.902;2022-08-19T05:46:50;37.65;;;20.77;;
20653;SDS011;21083;50.898;4.902;2022-08-19T05:49:19;37.40;;;19.88;;
20653;SDS011;21083;50.898;4.902;2022-08-19T05:51:48;36.05;;;21.08;;
20653;SDS011;21083;50.898;4.902;2022-08-19T05:54:17;45.83;;;21.88;;
20653;SDS011;21083;50.898;4.902;2022-08-19T05:56:45;40.75;;;19.95;;
20653;SDS011;21083;50.898;4.902;2022-08-19T05:59:13;40.63;;;20.60;;
20653;SDS011;21083;50.898;4.902;2022-08-19T06:01:42;38.47;;;21.02;;
20653;SDS011;21083;50.898;4.902;2022-08-19T06:04:10;40.70;;;20.67;;
20653;SDS011;21083;50.898;4.902;2022-08-19T06:06:38;39.47;;;21.73;;
20653;SDS011;21083;50.898;4.902;2022-08-19T06:09:06;39.17;;;22.30;;
20653;SDS011;21083;50.898;4.902;2022-08-19T06:11:38;41.67;;;21.85;;
20653;SDS011;21083;50.898;4.902;2022-08-19T06:14:10;42.55;;;20.80;;
20653;SDS011;21083;50.898;4.902;2022-08-19T06:16:40;45.38;;;22.05;;
20653;SDS011;21083;50.898;4.902;2022-08-19T06:19:08;42.28;;;20.63;;
20653;SDS011;21083;50.898;4.902;2022-08-19T06:21:37;41.50;;;21.55;;
20653;SDS011;21083;50.898;4.902;2022-08-19T06:24:06;38.97;;;20.52;;
20653;SDS011;21083;50.898;4.902;2022-08-19T06:26:36;36.03;;;18.73;;
20653;SDS011;21083;50.898;4.902;2022-08-19T06:29:08;37.22;;;20.75;;
20653;SDS011;21083;50.898;4.902;2022-08-19T06:31:36;39.88;;;18.83;;
20653;SDS011;21083;50.898;4.902;2022-08-19T06:34:07;41.03;;;18.75;;
20653;SDS011;21083;50.898;4.902;2022-08-19T06:36:34;44.50;;;19.90;;
20653;SDS011;21083;50.898;4.902;2022-08-19T06:39:06;38.63;;;19.95;;
20653;SDS011;21083;50.898;4.902;2022-08-19T06:41:37;37.45;;;18.17;;
20653;SDS011;21083;50.898;4.902;2022-08-19T06:44:06;38.03;;;19.40;;
20653;SDS011;21083;50.898;4.902;2022-08-19T06:46:35;35.40;;;18.25;;
20653;SDS011;21083;50.898;4.902;2022-08-19T06:49:03;34.28;;;17.65;;
20653;SDS011;21083;50.898;4.902;2022-08-19T06:51:31;36.20;;;18.30;;
20653;SDS011;21083;50.898;4.902;2022-08-19T06:53:59;34.42;;;18.88;;
20653;SDS011;21083;50.898;4.902;2022-08-19T06:56:27;33.80;;;18.17;;
20653;SDS011;21083;50.898;4.902;2022-08-19T06:59:00;32.67;;;17.85;;
20653;SDS011;21083;50.898;4.902;2022-08-19T07:01:28;33.08;;;17.60;;
20653;SDS011;21083;50.898;4.902;2022-08-19T07:03:55;36.05;;;18.70;;
20653;SDS011;21083;50.898;4.902;2022-08-19T07:06:22;38.83;;;18.70;;
20653;SDS011;21083;50.898;4.902;2022-08-19T07:08:49;34.85;;;16.98;;
20653;SDS011;21083;50.898;4.902;2022-08-19T07:11:17;33.95;;;16.77;;
20653;SDS011;21083;50.898;4.902;2022-08-19T07:13:45;34.78;;;16.75;;
20653;SDS011;21083;50.898;4.902;2022-08-19T07:16:15;32.15;;;16.35;;
20653;SDS011;21083;50.898;4.902;2022-08-19T07:18:45;28.55;;;15.00;;
20653;SDS011;21083;50.898;4.902;2022-08-19T07:21:14;26.75;;;14.32;;
20653;SDS011;21083;50.898;4.902;2022-08-19T07:23:43;31.73;;;14.77;;
20653;SDS011;21083;50.898;4.902;2022-08-19T07:26:14;26.05;;;13.55;;
20653;SDS011;21083;50.898;4.902;2022-08-19T07:28:44;26.67;;;13.20;;
20653;SDS011;21083;50.898;4.902;2022-08-19T07:31:12;24.48;;;11.30;;
20653;SDS011;21083;50.898;4.902;2022-08-19T07:33:43;21.73;;;11.80;;
20653;SDS011;21083;50.898;4.902;2022-08-19T07:36:12;22.25;;;10.63;;
20653;SDS011;21083;50.898;4.902;2022-08-19T07:38:42;24.63;;;10.85;;
20653;SDS011;21083;50.898;4.902;2022-08-19T07:41:10;27.77;;;10.93;;
20653;SDS011;21083;50.898;4.902;2022-08-19T07:43:39;16.33;;;9.43;;
20653;SDS011;21083;50.898;4.902;2022-08-19T07:46:08;21.13;;;10.25;;
20653;SDS011;21083;50.898;4.902;2022-08-19T07:48:37;20.83;;;9.00;;
20653;SDS011;21083;50.898;4.902;2022-08-19T07:51:04;24.50;;;8.85;;
20653;SDS011;21083;50.898;4.902;2022-08-19T07:53:33;19.83;;;9.50;;
20653;SDS011;21083;50.898;4.902;2022-08-19T07:56:01;18.10;;;8.60;;
20653;SDS011;21083;50.898;4.902;2022-08-19T07:58:29;17.27;;;8.68;;
20653;SDS011;21083;50.898;4.902;2022-08-19T08:00:59;18.83;;;10.27;;
20653;SDS011;21083;50.898;4.902;2022-08-19T08:03:26;20.25;;;8.57;;
20653;SDS011;21083;50.898;4.902;2022-08-19T08:06:09;15.25;;;7.78;;
20653;SDS011;21083;50.898;4.902;2022-08-19T08:08:54;17.58;;;8.00;;
20653;SDS011;21083;50.898;4.902;2022-08-19T08:11:38;21.40;;;7.78;;
20653;SDS011;21083;50.898;4.902;2022-08-19T08:14:06;15.70;;;7.15;;
20653;SDS011;21083;50.898;4.902;2022-08-19T08:16:34;16.75;;;8.25;;
20653;SDS011;21083;50.898;4.902;2022-08-19T08:19:03;21.73;;;8.00;;
20653;SDS011;21083;50.898;4.902;2022-08-19T08:21:31;16.23;;;7.90;;
20653;SDS011;21083;50.898;4.902;2022-08-19T08:23:59;16.27;;;7.18;;
20653;SDS011;21083;50.898;4.902;2022-08-19T08:26:26;15.27;;;6.78;;
20653;SDS011;21083;50.898;4.902;2022-08-19T08:28:53;14.80;;;7.13;;
20653;SDS011;21083;50.898;4.902;2022-08-19T08:31:20;20.38;;;7.72;;
20653;SDS011;21083;50.898;4.902;2022-08-19T08:33:47;15.35;;;6.55;;
20653;SDS011;21083;50.898;4.902;2022-08-19T08:36:14;16.98;;;6.35;;
20653;SDS011;21083;50.898;4.902;2022-08-19T08:38:42;15.27;;;6.88;;
20653;SDS011;21083;50.898;4.902;2022-08-19T08:41:13;15.10;;;5.43;;
20653;SDS011;21083;50.898;4.902;2022-08-19T08:43:46;14.75;;;5.85;;
20653;SDS011;21083;50.898;4.902;2022-08-19T08:46:17;12.85;;;5.07;;
20653;SDS011;21083;50.898;4.902;2022-08-19T08:48:49;14.23;;;5.43;;
20653;SDS011;21083;50.898;4.902;2022-08-19T08:51:21;11.07;;;4.95;;
20653;SDS011;21083;50.898;4.902;2022-08-19T08:53:53;10.95;;;4.88;;
20653;SDS011;21083;50.898;4.902;2022-08-19T08:56:21;13.52;;;4.55;;
20653;SDS011;21083;50.898;4.902;2022-08-19T08:58:51;10.02;;;4.28;;
20653;SDS011;21083;50.898;4.902;2022-08-19T09:01:23;12.80;;;4.38;;
20653;SDS011;21083;50.898;4.902;2022-08-19T09:03:50;13.15;;;3.92;;
20653;SDS011;21083;50.898;4.902;2022-08-19T09:06:19;8.70;;;3.85;;
20653;SDS011;21083;50.898;4.902;2022-08-19T09:08:52;12.75;;;4.60;;
20653;SDS011;21083;50.898;4.902;2022-08-19T09:11:34;9.98;;;4.13;;
20653;SDS011;21083;50.898;4.902;2022-08-19T09:14:16;8.55;;;3.78;;
20653;SDS011;21083;50.898;4.902;2022-08-19T09:16:58;10.52;;;3.92;;
20653;SDS011;21083;50.898;4.902;2022-08-19T09:19:28;7.88;;;3.85;;
20653;SDS011;21083;50.898;4.902;2022-08-19T09:21:55;10.60;;;3.70;;
20653;SDS011;21083;50.898;4.902;2022-08-19T09:24:32;10.45;;;4.10;;
20653;SDS011;21083;50.898;4.902;2022-08-19T09:27:00;11.52;;;4.43;;
20653;SDS011;21083;50.898;4.902;2022-08-19T09:29:27;8.75;;;3.88;;
20653;SDS011;21083;50.898;4.902;2022-08-19T09:31:54;11.32;;;4.15;;
20653;SDS011;21083;50.898;4.902;2022-08-19T09:34:21;10.68;;;4.68;;
20653;SDS011;21083;50.898;4.902;2022-08-19T09:36:48;11.27;;;5.32;;
20653;SDS011;21083;50.898;4.902;2022-08-19T09:39:18;10.48;;;4.53;;
20653;SDS011;21083;50.898;4.902;2022-08-19T09:41:46;12.18;;;4.40;;
20653;SDS011;21083;50.898;4.902;2022-08-19T09:44:15;11.63;;;4.50;;
20653;SDS011;21083;50.898;4.902;2022-08-19T09:46:42;10.77;;;4.30;;
20653;SDS011;21083;50.898;4.902;2022-08-19T09:49:11;10.63;;;4.55;;
20653;SDS011;21083;50.898;4.902;2022-08-19T09:51:39;10.82;;;4.25;;
20653;SDS011;21083;50.898;4.902;2022-08-19T09:54:05;10.30;;;4.43;;
20653;SDS011;21083;50.898;4.902;2022-08-19T09:56:32;13.98;;;5.22;;
20653;SDS011;21083;50.898;4.902;2022-08-19T09:59:01;13.82;;;4.38;;
20653;SDS011;21083;50.898;4.902;2022-08-19T10:01:30;10.93;;;4.57;;
20653;SDS011;21083;50.898;4.902;2022-08-19T10:03:58;13.98;;;4.25;;
20653;SDS011;21083;50.898;4.902;2022-08-19T10:06:27;10.13;;;4.28;;
20653;SDS011;21083;50.898;4.902;2022-08-19T10:08:57;10.07;;;4.72;;
20653;SDS011;21083;50.898;4.902;2022-08-19T10:11:24;12.57;;;5.30;;
20653;SDS011;21083;50.898;4.902;2022-08-19T10:13:53;9.70;;;4.43;;
20653;SDS011;21083;50.898;4.902;2022-08-19T10:16:21;12.07;;;4.60;;
20653;SDS011;21083;50.898;4.902;2022-08-19T10:18:50;9.18;;;4.50;;
20653;SDS011;21083;50.898;4.902;2022-08-19T10:21:19;9.00;;;3.97;;
20653;SDS011;21083;50.898;4.902;2022-08-19T10:23:49;10.00;;;4.45;;
20653;SDS011;21083;50.898;4.902;2022-08-19T10:26:20;9.90;;;4.32;;
20653;SDS011;21083;50.898;4.902;2022-08-19T10:28:49;13.50;;;3.78;;
20653;SDS011;21083;50.898;4.902;2022-08-19T10:31:16;11.30;;;4.15;;
20653;SDS011;21083;50.898;4.902;2022-08-19T10:33:47;10.75;;;4.28;;
20653;SDS011;21083;50.898;4.902;2022-08-19T10:36:17;9.15;;;3.88;;
20653;SDS011;21083;50.898;4.902;2022-08-19T10:38:46;7.68;;;3.47;;
20653;SDS011;21083;50.898;4.902;2022-08-19T10:41:16;8.73;;;3.38;;
20653;SDS011;21083;50.898;4.902;2022-08-19T10:43:44;8.00;;;3.40;;
20653;SDS011;21083;50.898;4.902;2022-08-19T10:46:13;10.23;;;4.15;;
20653;SDS011;21083;50.898;4.902;2022-08-19T10:48:41;9.02;;;3.55;;
20653;SDS011;21083;50.898;4.902;2022-08-19T10:51:11;9.93;;;3.88;;
20653;SDS011;21083;50.898;4.902;2022-08-19T10:53:56;9.50;;;3.65;;
20653;SDS011;21083;50.898;4.902;2022-08-19T10:56:25;9.65;;;4.10;;
20653;SDS011;21083;50.898;4.902;2022-08-19T10:59:10;9.35;;;3.95;;
20653;SDS011;21083;50.898;4.902;2022-08-19T11:01:39;10.57;;;3.88;;
20653;SDS011;21083;50.898;4.902;2022-08-19T11:04:07;8.45;;;3.85;;
20653;SDS011;21083;50.898;4.902;2022-08-19T11:06:37;12.75;;;3.65;;
20653;SDS011;21083;50.898;4.902;2022-08-19T11:09:06;9.68;;;3.75;;
20653;SDS011;21083;50.898;4.902;2022-08-19T11:11:33;10.40;;;4.25;;
20653;SDS011;21083;50.898;4.902;2022-08-19T11:14:05;8.90;;;3.95;;
20653;SDS011;21083;50.898;4.902;2022-08-19T11:16:33;8.43;;;3.55;;
20653;SDS011;21083;50.898;4.902;2022-08-19T11:19:00;8.73;;;4.10;;
20653;SDS011;21083;50.898;4.902;2022-08-19T11:21:28;7.70;;;3.70;;
20653;SDS011;21083;50.898;4.902;2022-08-19T11:24:03;8.43;;;3.55;;
20653;SDS011;21083;50.898;4.902;2022-08-19T11:26:32;8.50;;;3.88;;
20653;SDS011;21083;50.898;4.902;2022-08-19T11:29:00;8.52;;;3.55;;
20653;SDS011;21083;50.898;4.902;2022-08-19T11:31:28;11.15;;;3.88;;
20653;SDS011;21083;50.898;4.902;2022-08-19T11:33:57;12.10;;;4.38;;
20653;SDS011;21083;50.898;4.902;2022-08-19T11:36:24;12.70;;;4.85;;
20653;SDS011;21083;50.898;4.902;2022-08-19T11:38:52;8.40;;;3.33;;
20653;SDS011;21083;50.898;4.902;2022-08-19T11:41:21;7.35;;;3.10;;
20653;SDS011;21083;50.898;4.902;2022-08-19T11:43:49;9.45;;;3.75;;
20653;SDS011;21083;50.898;4.902;2022-08-19T11:46:18;7.32;;;3.13;;
20653;SDS011;21083;50.898;4.902;2022-08-19T11:48:46;7.50;;;2.70;;
20653;SDS011;21083;50.898;4.902;2022-08-19T11:51:14;7.25;;;3.15;;
20653;SDS011;21083;50.898;4.902;2022-08-19T11:53:42;9.75;;;3.00;;
20653;SDS011;21083;50.898;4.902;2022-08-19T11:56:09;7.90;;;2.58;;
20653;SDS011;21083;50.898;4.902;2022-08-19T11:58:37;7.70;;;2.50;;
20653;SDS011;21083;50.898;4.902;2022-08-19T12:01:07;5.90;;;2.28;;
20653;SDS011;21083;50.898;4.902;2022-08-19T12:03:34;7.05;;;2.95;;
20653;SDS011;21083;50.898;4.902;2022-08-19T12:06:02;7.35;;;2.50;;
20653;SDS011;21083;50.898;4.902;2022-08-19T12:08:30;22.20;;;3.85;;
20653;SDS011;21083;50.898;4.902;2022-08-19T12:10:57;9.02;;;2.60;;
20653;SDS011;21083;50.898;4.902;2022-08-19T12:13:26;6.30;;;2.50;;
20653;SDS011;21083;50.898;4.902;2022-08-19T12:15:55;6.68;;;2.70;;
20653;SDS011;21083;50.898;4.902;2022-08-19T12:18:23;6.95;;;2.70;;
20653;SDS011;21083;50.898;4.902;2022-08-19T12:20:51;5.20;;;2.53;;
20653;SDS011;21083;50.898;4.902;2022-08-19T12:23:20;6.93;;;2.67;;
20653;SDS011;21083;50.898;4.902;2022-08-19T12:25:48;8.73;;;3.10;;
20653;SDS011;21083;50.898;4.902;2022-08-19T12:28:17;8.05;;;3.17;;
20653;SDS011;21083;50.898;4.902;2022-08-19T12:30:45;8.52;;;3.20;;
20653;SDS011;21083;50.898;4.902;2022-08-19T12:33:15;9.57;;;3.47;;
20653;SDS011;21083;50.898;4.902;2022-08-19T12:35:43;7.22;;;3.42;;
20653;SDS011;21083;50.898;4.902;2022-08-19T12:38:11;8.38;;;3.80;;
20653;SDS011;21083;50.898;4.902;2022-08-19T12:40:39;8.57;;;3.30;;
20653;SDS011;21083;50.898;4.902;2022-08-19T12:43:07;10.35;;;4.47;;
20653;SDS011;21083;50.898;4.902;2022-08-19T12:45:34;8.70;;;3.80;;
20653;SDS011;21083;50.898;4.902;2022-08-19T12:48:02;11.68;;;4.45;;
20653;SDS011;21083;50.898;4.902;2022-08-19T12:50:32;8.70;;;4.20;;
20653;SDS011;21083;50.898;4.902;2022-08-19T12:52:59;9.57;;;4.40;;
20653;SDS011;21083;50.898;4.902;2022-08-19T12:55:25;11.88;;;4.95;;
20653;SDS011;21083;50.898;4.902;2022-08-19T12:57:54;9.98;;;4.95;;
20653;SDS011;21083;50.898;4.902;2022-08-19T13:00:22;9.02;;;4.78;;
20653;SDS011;21083;50.898;4.902;2022-08-19T13:02:50;10.88;;;4.60;;
20653;SDS011;21083;50.898;4.902;2022-08-19T13:05:18;10.45;;;4.93;;
20653;SDS011;21083;50.898;4.902;2022-08-19T13:07:49;12.93;;;5.10;;
20653;SDS011;21083;50.898;4.902;2022-08-19T13:10:18;12.80;;;5.57;;
20653;SDS011;21083;50.898;4.902;2022-08-19T13:12:47;11.20;;;4.95;;
20653;SDS011;21083;50.898;4.902;2022-08-19T13:15:16;8.20;;;4.05;;
20653;SDS011;21083;50.898;4.902;2022-08-19T13:17:45;8.90;;;4.72;;
20653;SDS011;21083;50.898;4.902;2022-08-19T13:20:13;9.93;;;4.85;;
20653;SDS011;21083;50.898;4.902;2022-08-19T13:22:42;10.05;;;4.78;;
20653;SDS011;21083;50.898;4.902;2022-08-19T13:25:11;11.30;;;5.00;;
20653;SDS011;21083;50.898;4.902;2022-08-19T13:27:39;9.40;;;4.70;;
20653;SDS011;21083;50.898;4.902;2022-08-19T13:30:08;10.15;;;4.43;;
20653;SDS011;21083;50.898;4.902;2022-08-19T13:32:54;9.95;;;4.28;;
20653;SDS011;21083;50.898;4.902;2022-08-19T13:35:39;11.98;;;4.68;;
20653;SDS011;21083;50.898;4.902;2022-08-19T13:38:08;11.20;;;4.60;;
20653;SDS011;21083;50.898;4.902;2022-08-19T13:40:37;8.75;;;4.15;;
20653;SDS011;21083;50.898;4.902;2022-08-19T13:43:04;9.32;;;3.95;;
20653;SDS011;21083;50.898;4.902;2022-08-19T13:45:32;8.13;;;4.18;;
20653;SDS011;21083;50.898;4.902;2022-08-19T13:48:00;10.52;;;4.05;;
20653;SDS011;21083;50.898;4.902;2022-08-19T13:50:31;7.55;;;3.75;;
20653;SDS011;21083;50.898;4.902;2022-08-19T13:53:00;8.32;;;3.90;;
20653;SDS011;21083;50.898;4.902;2022-08-19T13:55:28;8.80;;;4.38;;
20653;SDS011;21083;50.898;4.902;2022-08-19T13:57:59;7.10;;;3.40;;
20653;SDS011;21083;50.898;4.902;2022-08-19T14:00:28;7.20;;;3.28;;
20653;SDS011;21083;50.898;4.902;2022-08-19T14:02:57;5.63;;;2.90;;
20653;SDS011;21083;50.898;4.902;2022-08-19T14:05:24;8.60;;;3.78;;
20653;SDS011;21083;50.898;4.902;2022-08-19T14:07:52;10.32;;;3.20;;
20653;SDS011;21083;50.898;4.902;2022-08-19T14:10:20;7.22;;;3.60;;
20653;SDS011;21083;50.898;4.902;2022-08-19T14:12:51;6.55;;;3.13;;
20653;SDS011;21083;50.898;4.902;2022-08-19T14:15:22;7.07;;;2.75;;
20653;SDS011;21083;50.898;4.902;2022-08-19T14:17:50;5.60;;;2.90;;
20653;SDS011;21083;50.898;4.902;2022-08-19T14:20:17;6.50;;;3.08;;
20653;SDS011;21083;50.898;4.902;2022-08-19T14:22:45;8.32;;;3.40;;
20653;SDS011;21083;50.898;4.902;2022-08-19T14:25:15;8.45;;;3.10;;
20653;SDS011;21083;50.898;4.902;2022-08-19T14:27:45;7.38;;;2.58;;
20653;SDS011;21083;50.898;4.902;2022-08-19T14:30:14;9.80;;;3.22;;
20653;SDS011;21083;50.898;4.902;2022-08-19T14:32:44;5.32;;;2.28;;
20653;SDS011;21083;50.898;4.902;2022-08-19T14:35:12;8.27;;;2.42;;
20653;SDS011;21083;50.898;4.902;2022-08-19T14:37:41;7.47;;;2.20;;
20653;SDS011;21083;50.898;4.902;2022-08-19T14:40:09;16.58;;;2.60;;
20653;SDS011;21083;50.898;4.902;2022-08-19T14:42:37;3.00;;;1.70;;